sensor_id;sensor_type;location;lat;lon;timestamp;temperature;humidity
16404;DHT22;8311;50.158;8.642;2022-09-09T00:02:08;25.10;49.50
16404;DHT22;8311;50.158;8.642;2022-09-09T00:05:14;25.10;49.60
16404;DHT22;8311;50.158;8.642;2022-09-09T00:08:18;25.10;49.60
16404;DHT22;8311;50.158;8.642;2022-09-09T00:11:15;25.20;49.60
16404;DHT22;8311;50.158;8.642;2022-09-09T00:14:18;25.10;49.60
16404;DHT22;8311;50.158;8.642;2022-09-09T00:17:20;25.20;49.70
16404;DHT22;8311;50.158;8.642;2022-09-09T00:20:20;25.10;49.60
16404;DHT22;8311;50.158;8.642;2022-09-09T00:23:19;25.10;49.60
16404;DHT22;8311;50.158;8.642;2022-09-09T00:26:29;25.20;49.70
16404;DHT22;8311;50.158;8.642;2022-09-09T00:29:31;25.10;49.70
16404;DHT22;8311;50.158;8.642;2022-09-09T00:32:29;25.10;49.70
16404;DHT22;8311;50.158;8.642;2022-09-09T00:35:24;25.10;49.70
16404;DHT22;8311;50.158;8.642;2022-09-09T00:38:24;25.20;49.80
16404;DHT22;8311;50.158;8.642;2022-09-09T00:41:22;25.10;49.70
16404;DHT22;8311;50.158;8.642;2022-09-09T00:44:28;25.10;49.70
16404;DHT22;8311;50.158;8.642;2022-09-09T00:47:38;25.10;49.70
16404;DHT22;8311;50.158;8.642;2022-09-09T00:50:41;25.10;49.80
16404;DHT22;8311;50.158;8.642;2022-09-09T00:53:56;25.10;49.80
16404;DHT22;8311;50.158;8.642;2022-09-09T01:00:21;25.10;49.80
16404;DHT22;8311;50.158;8.642;2022-09-09T01:03:22;25.10;49.80
16404;DHT22;8311;50.158;8.642;2022-09-09T01:06:22;25.10;49.80
16404;DHT22;8311;50.158;8.642;2022-09-09T01:09:22;25.10;49.80
16404;DHT22;8311;50.158;8.642;2022-09-09T01:12:25;25.10;49.80
16404;DHT22;8311;50.158;8.642;2022-09-09T01:15:21;25.10;49.80
16404;DHT22;8311;50.158;8.642;2022-09-09T01:18:17;25.10;49.80
16404;DHT22;8311;50.158;8.642;2022-09-09T01:21:19;25.10;49.80
16404;DHT22;8311;50.158;8.642;2022-09-09T01:24:22;25.10;49.80
16404;DHT22;8311;50.158;8.642;2022-09-09T01:27:18;25.10;49.80
16404;DHT22;8311;50.158;8.642;2022-09-09T01:30:14;25.10;49.70
16404;DHT22;8311;50.158;8.642;2022-09-09T01:33:13;25.10;49.80
16404;DHT22;8311;50.158;8.642;2022-09-09T01:36:10;25.10;49.70
16404;DHT22;8311;50.158;8.642;2022-09-09T01:39:08;25.10;49.70
16404;DHT22;8311;50.158;8.642;2022-09-09T01:42:02;25.10;49.70
16404;DHT22;8311;50.158;8.642;2022-09-09T01:44:57;25.10;49.70
16404;DHT22;8311;50.158;8.642;2022-09-09T01:47:51;25.10;49.70
16404;DHT22;8311;50.158;8.642;2022-09-09T01:50:45;25.10;49.70
16404;DHT22;8311;50.158;8.642;2022-09-09T01:53:39;25.10;49.70
16404;DHT22;8311;50.158;8.642;2022-09-09T01:56:42;25.10;49.70
16404;DHT22;8311;50.158;8.642;2022-09-09T01:59:48;25.10;49.70
16404;DHT22;8311;50.158;8.642;2022-09-09T02:02:52;25.10;49.70
16404;DHT22;8311;50.158;8.642;2022-09-09T02:05:54;25.10;49.70
16404;DHT22;8311;50.158;8.642;2022-09-09T02:08:52;25.10;49.70
16404;DHT22;8311;50.158;8.642;2022-09-09T02:11:47;25.00;49.60
16404;DHT22;8311;50.158;8.642;2022-09-09T02:14:48;25.10;49.70
16404;DHT22;8311;50.158;8.642;2022-09-09T02:17:41;25.10;49.60
16404;DHT22;8311;50.158;8.642;2022-09-09T02:20:38;25.10;49.60
16404;DHT22;8311;50.158;8.642;2022-09-09T02:23:31;25.00;49.60
16404;DHT22;8311;50.158;8.642;2022-09-09T02:26:26;25.10;49.60
16404;DHT22;8311;50.158;8.642;2022-09-09T02:29:26;25.00;49.50
16404;DHT22;8311;50.158;8.642;2022-09-09T02:32:23;25.10;49.60
16404;DHT22;8311;50.158;8.642;2022-09-09T02:35:19;25.00;49.50
16404;DHT22;8311;50.158;8.642;2022-09-09T02:38:16;25.00;49.50
16404;DHT22;8311;50.158;8.642;2022-09-09T02:41:09;25.00;49.50
16404;DHT22;8311;50.158;8.642;2022-09-09T02:44:05;25.00;49.50
16404;DHT22;8311;50.158;8.642;2022-09-09T02:47:10;25.00;49.50
16404;DHT22;8311;50.158;8.642;2022-09-09T02:50:12;25.00;49.50
16404;DHT22;8311;50.158;8.642;2022-09-09T02:53:09;25.00;49.50
16404;DHT22;8311;50.158;8.642;2022-09-09T02:56:09;25.00;49.50
16404;DHT22;8311;50.158;8.642;2022-09-09T02:59:05;25.00;49.50
16404;DHT22;8311;50.158;8.642;2022-09-09T03:01:59;25.00;49.50
16404;DHT22;8311;50.158;8.642;2022-09-09T03:04:53;25.00;49.50
16404;DHT22;8311;50.158;8.642;2022-09-09T03:07:46;25.00;49.50
16404;DHT22;8311;50.158;8.642;2022-09-09T03:10:41;25.00;49.50
16404;DHT22;8311;50.158;8.642;2022-09-09T03:13:36;25.00;49.50
16404;DHT22;8311;50.158;8.642;2022-09-09T03:16:29;25.00;49.50
16404;DHT22;8311;50.158;8.642;2022-09-09T03:19:22;25.00;49.50
16404;DHT22;8311;50.158;8.642;2022-09-09T03:22:15;25.00;49.50
16404;DHT22;8311;50.158;8.642;2022-09-09T03:25:09;25.00;49.50
16404;DHT22;8311;50.158;8.642;2022-09-09T03:28:02;25.00;49.50
16404;DHT22;8311;50.158;8.642;2022-09-09T03:30:59;25.00;49.50
16404;DHT22;8311;50.158;8.642;2022-09-09T03:33:52;25.00;49.50
16404;DHT22;8311;50.158;8.642;2022-09-09T03:36:45;25.00;49.50
16404;DHT22;8311;50.158;8.642;2022-09-09T03:39:40;25.00;49.50
16404;DHT22;8311;50.158;8.642;2022-09-09T03:42:34;25.00;49.50
16404;DHT22;8311;50.158;8.642;2022-09-09T03:45:28;25.00;49.60
16404;DHT22;8311;50.158;8.642;2022-09-09T03:48:24;25.00;49.50
16404;DHT22;8311;50.158;8.642;2022-09-09T03:51:19;25.00;49.60
16404;DHT22;8311;50.158;8.642;2022-09-09T03:54:13;25.00;49.60
16404;DHT22;8311;50.158;8.642;2022-09-09T03:57:06;25.00;49.60
16404;DHT22;8311;50.158;8.642;2022-09-09T03:59:59;25.00;49.60
16404;DHT22;8311;50.158;8.642;2022-09-09T04:02:52;25.00;49.60
16404;DHT22;8311;50.158;8.642;2022-09-09T04:05:49;25.00;49.60
16404;DHT22;8311;50.158;8.642;2022-09-09T04:08:43;25.00;49.60
16404;DHT22;8311;50.158;8.642;2022-09-09T04:11:36;25.00;49.60
16404;DHT22;8311;50.158;8.642;2022-09-09T04:14:29;25.00;49.60
16404;DHT22;8311;50.158;8.642;2022-09-09T04:17:23;25.00;49.50
16404;DHT22;8311;50.158;8.642;2022-09-09T04:20:17;25.00;49.50
16404;DHT22;8311;50.158;8.642;2022-09-09T04:23:13;25.00;49.50
16404;DHT22;8311;50.158;8.642;2022-09-09T04:26:07;25.00;49.50
16404;DHT22;8311;50.158;8.642;2022-09-09T04:29:00;25.00;49.60
16404;DHT22;8311;50.158;8.642;2022-09-09T04:31:53;25.00;49.50
16404;DHT22;8311;50.158;8.642;2022-09-09T04:34:49;25.00;49.50
16404;DHT22;8311;50.158;8.642;2022-09-09T04:37:42;25.00;49.50
16404;DHT22;8311;50.158;8.642;2022-09-09T04:40:38;25.00;49.40
16404;DHT22;8311;50.158;8.642;2022-09-09T04:43:34;25.00;49.50
16404;DHT22;8311;50.158;8.642;2022-09-09T04:46:29;25.00;49.50
16404;DHT22;8311;50.158;8.642;2022-09-09T04:49:22;25.00;49.50
16404;DHT22;8311;50.158;8.642;2022-09-09T04:52:16;25.00;49.50
16404;DHT22;8311;50.158;8.642;2022-09-09T04:55:10;25.00;49.50
16404;DHT22;8311;50.158;8.642;2022-09-09T04:58:06;25.00;49.40
16404;DHT22;8311;50.158;8.642;2022-09-09T05:01:06;25.00;49.40
16404;DHT22;8311;50.158;8.642;2022-09-09T05:03:59;25.00;49.50
16404;DHT22;8311;50.158;8.642;2022-09-09T05:06:52;25.00;49.50
16404;DHT22;8311;50.158;8.642;2022-09-09T05:09:45;25.00;49.50
16404;DHT22;8311;50.158;8.642;2022-09-09T05:12:40;25.00;49.80
16404;DHT22;8311;50.158;8.642;2022-09-09T05:15:35;25.00;49.50
16404;DHT22;8311;50.158;8.642;2022-09-09T05:18:29;24.90;49.40
16404;DHT22;8311;50.158;8.642;2022-09-09T05:21:24;25.00;49.40
16404;DHT22;8311;50.158;8.642;2022-09-09T05:24:18;25.00;49.40
16404;DHT22;8311;50.158;8.642;2022-09-09T05:27:11;24.90;49.30
16404;DHT22;8311;50.158;8.642;2022-09-09T05:30:05;25.00;49.40
16404;DHT22;8311;50.158;8.642;2022-09-09T05:33:00;25.00;49.40
16404;DHT22;8311;50.158;8.642;2022-09-09T05:36:01;24.90;49.40
16404;DHT22;8311;50.158;8.642;2022-09-09T05:38:54;24.90;49.30
16404;DHT22;8311;50.158;8.642;2022-09-09T05:41:47;24.90;49.30
16404;DHT22;8311;50.158;8.642;2022-09-09T05:44:40;24.90;49.30
16404;DHT22;8311;50.158;8.642;2022-09-09T05:47:34;24.90;49.30
16404;DHT22;8311;50.158;8.642;2022-09-09T05:50:30;24.90;49.30
16404;DHT22;8311;50.158;8.642;2022-09-09T05:53:23;24.90;49.30
16404;DHT22;8311;50.158;8.642;2022-09-09T05:56:19;24.90;49.30
16404;DHT22;8311;50.158;8.642;2022-09-09T05:59:14;24.90;49.30
16404;DHT22;8311;50.158;8.642;2022-09-09T06:02:08;24.90;49.30
16404;DHT22;8311;50.158;8.642;2022-09-09T06:05:01;24.90;49.30
16404;DHT22;8311;50.158;8.642;2022-09-09T06:07:56;24.90;49.30
16404;DHT22;8311;50.158;8.642;2022-09-09T06:10:52;24.90;49.30
16404;DHT22;8311;50.158;8.642;2022-09-09T06:13:45;24.90;49.30
16404;DHT22;8311;50.158;8.642;2022-09-09T06:16:39;24.90;49.30
16404;DHT22;8311;50.158;8.642;2022-09-09T06:19:35;24.90;49.30
16404;DHT22;8311;50.158;8.642;2022-09-09T06:22:28;24.90;49.30
16404;DHT22;8311;50.158;8.642;2022-09-09T06:25:23;24.90;49.30
16404;DHT22;8311;50.158;8.642;2022-09-09T06:28:16;24.90;49.30
16404;DHT22;8311;50.158;8.642;2022-09-09T06:31:11;24.90;49.30
16404;DHT22;8311;50.158;8.642;2022-09-09T06:34:06;24.90;49.30
16404;DHT22;8311;50.158;8.642;2022-09-09T06:36:59;24.90;49.30
16404;DHT22;8311;50.158;8.642;2022-09-09T06:39:52;24.90;49.30
16404;DHT22;8311;50.158;8.642;2022-09-09T06:42:47;24.90;49.30
16404;DHT22;8311;50.158;8.642;2022-09-09T06:45:41;24.90;49.30
16404;DHT22;8311;50.158;8.642;2022-09-09T06:48:34;24.90;49.30
16404;DHT22;8311;50.158;8.642;2022-09-09T06:51:30;24.90;49.30
16404;DHT22;8311;50.158;8.642;2022-09-09T06:54:24;24.90;49.30
16404;DHT22;8311;50.158;8.642;2022-09-09T06:57:17;24.90;49.30
16404;DHT22;8311;50.158;8.642;2022-09-09T07:00:29;24.90;49.30
16404;DHT22;8311;50.158;8.642;2022-09-09T07:03:22;24.90;49.30
16404;DHT22;8311;50.158;8.642;2022-09-09T07:06:17;24.90;49.30
16404;DHT22;8311;50.158;8.642;2022-09-09T07:09:13;24.90;49.20
16404;DHT22;8311;50.158;8.642;2022-09-09T07:12:06;24.90;49.30
16404;DHT22;8311;50.158;8.642;2022-09-09T07:14:59;24.90;49.30
16404;DHT22;8311;50.158;8.642;2022-09-09T07:17:54;24.90;49.30
16404;DHT22;8311;50.158;8.642;2022-09-09T07:20:53;24.90;49.20
16404;DHT22;8311;50.158;8.642;2022-09-09T07:23:46;24.90;49.20
16404;DHT22;8311;50.158;8.642;2022-09-09T07:26:40;24.90;49.20
16404;DHT22;8311;50.158;8.642;2022-09-09T07:29:33;24.80;49.20
16404;DHT22;8311;50.158;8.642;2022-09-09T07:32:26;24.90;49.20
16404;DHT22;8311;50.158;8.642;2022-09-09T07:35:21;24.90;49.20
16404;DHT22;8311;50.158;8.642;2022-09-09T07:38:13;24.90;49.20
16404;DHT22;8311;50.158;8.642;2022-09-09T07:41:08;24.90;49.20
16404;DHT22;8311;50.158;8.642;2022-09-09T07:44:05;24.90;49.20
16404;DHT22;8311;50.158;8.642;2022-09-09T07:46:58;24.90;49.80
16404;DHT22;8311;50.158;8.642;2022-09-09T07:49:51;24.90;49.20
16404;DHT22;8311;50.158;8.642;2022-09-09T07:52:46;24.90;49.20
16404;DHT22;8311;50.158;8.642;2022-09-09T07:55:39;24.90;49.20
16404;DHT22;8311;50.158;8.642;2022-09-09T07:58:32;24.90;49.20
16404;DHT22;8311;50.158;8.642;2022-09-09T08:01:31;24.90;49.20
16404;DHT22;8311;50.158;8.642;2022-09-09T08:04:25;24.90;49.20
16404;DHT22;8311;50.158;8.642;2022-09-09T08:07:19;24.80;49.80
16404;DHT22;8311;50.158;8.642;2022-09-09T08:10:15;24.80;49.10
16404;DHT22;8311;50.158;8.642;2022-09-09T08:13:08;24.90;49.20
16404;DHT22;8311;50.158;8.642;2022-09-09T08:16:12;24.80;49.10
16404;DHT22;8311;50.158;8.642;2022-09-09T08:19:07;24.80;49.10
16404;DHT22;8311;50.158;8.642;2022-09-09T08:22:02;24.80;49.10
16404;DHT22;8311;50.158;8.642;2022-09-09T08:24:55;24.80;49.10
16404;DHT22;8311;50.158;8.642;2022-09-09T08:27:52;24.80;49.10
16404;DHT22;8311;50.158;8.642;2022-09-09T08:30:46;24.80;49.10
16404;DHT22;8311;50.158;8.642;2022-09-09T08:33:40;24.80;49.10
16404;DHT22;8311;50.158;8.642;2022-09-09T08:36:35;24.80;49.10
16404;DHT22;8311;50.158;8.642;2022-09-09T08:39:28;24.80;49.10
16404;DHT22;8311;50.158;8.642;2022-09-09T08:42:30;24.80;49.10
16404;DHT22;8311;50.158;8.642;2022-09-09T08:45:34;24.80;49.10
16404;DHT22;8311;50.158;8.642;2022-09-09T08:48:43;24.80;49.10
16404;DHT22;8311;50.158;8.642;2022-09-09T08:51:38;24.80;49.20
16404;DHT22;8311;50.158;8.642;2022-09-09T08:54:33;24.80;49.10
16404;DHT22;8311;50.158;8.642;2022-09-09T08:57:44;24.80;49.20
16404;DHT22;8311;50.158;8.642;2022-09-09T09:00:44;24.80;49.20
16404;DHT22;8311;50.158;8.642;2022-09-09T09:03:47;24.80;49.20
16404;DHT22;8311;50.158;8.642;2022-09-09T09:06:50;24.80;49.20
16404;DHT22;8311;50.158;8.642;2022-09-09T09:09:55;24.80;49.20
16404;DHT22;8311;50.158;8.642;2022-09-09T09:12:51;24.80;49.20
16404;DHT22;8311;50.158;8.642;2022-09-09T09:15:49;24.80;49.20
16404;DHT22;8311;50.158;8.642;2022-09-09T09:18:43;24.80;49.20
16404;DHT22;8311;50.158;8.642;2022-09-09T09:21:41;24.80;49.80
16404;DHT22;8311;50.158;8.642;2022-09-09T09:24:40;24.80;49.20
16404;DHT22;8311;50.158;8.642;2022-09-09T09:27:38;24.80;49.10
16404;DHT22;8311;50.158;8.642;2022-09-09T09:30:37;24.80;49.20
16404;DHT22;8311;50.158;8.642;2022-09-09T09:33:35;24.80;49.20
16404;DHT22;8311;50.158;8.642;2022-09-09T09:36:34;24.80;49.10
16404;DHT22;8311;50.158;8.642;2022-09-09T09:39:29;24.80;49.20
16404;DHT22;8311;50.158;8.642;2022-09-09T09:42:49;24.70;49.20
16404;DHT22;8311;50.158;8.642;2022-09-09T09:45:44;24.80;49.20
16404;DHT22;8311;50.158;8.642;2022-09-09T09:49:00;24.70;49.00
16404;DHT22;8311;50.158;8.642;2022-09-09T09:51:53;24.80;49.30
16404;DHT22;8311;50.158;8.642;2022-09-09T09:54:54;24.70;49.20
16404;DHT22;8311;50.158;8.642;2022-09-09T09:57:48;24.80;49.20
16404;DHT22;8311;50.158;8.642;2022-09-09T10:00:47;24.70;49.20
16404;DHT22;8311;50.158;8.642;2022-09-09T10:03:50;24.70;49.30
16404;DHT22;8311;50.158;8.642;2022-09-09T10:06:45;24.80;50.20
16404;DHT22;8311;50.158;8.642;2022-09-09T10:09:38;24.80;50.00
16404;DHT22;8311;50.158;8.642;2022-09-09T10:12:41;24.80;50.10
16404;DHT22;8311;50.158;8.642;2022-09-09T10:15:45;24.80;49.90
16404;DHT22;8311;50.158;8.642;2022-09-09T10:18:49;24.80;49.40
16404;DHT22;8311;50.158;8.642;2022-09-09T10:22:09;24.70;49.30
16404;DHT22;8311;50.158;8.642;2022-09-09T10:25:26;24.70;49.30
16404;DHT22;8311;50.158;8.642;2022-09-09T10:28:36;24.80;49.40
16404;DHT22;8311;50.158;8.642;2022-09-09T10:31:37;24.80;49.40
16404;DHT22;8311;50.158;8.642;2022-09-09T10:34:50;24.70;49.40
16404;DHT22;8311;50.158;8.642;2022-09-09T10:41:16;24.70;49.50
16404;DHT22;8311;50.158;8.642;2022-09-09T10:44:30;24.80;49.60
16404;DHT22;8311;50.158;8.642;2022-09-09T10:47:49;24.80;49.80
16404;DHT22;8311;50.158;8.642;2022-09-09T10:50:55;24.70;49.70
16404;DHT22;8311;50.158;8.642;2022-09-09T10:54:09;24.70;49.70
16404;DHT22;8311;50.158;8.642;2022-09-09T10:57:09;24.70;49.70
16404;DHT22;8311;50.158;8.642;2022-09-09T11:00:13;24.80;49.90
16404;DHT22;8311;50.158;8.642;2022-09-09T11:03:15;24.70;49.90
16404;DHT22;8311;50.158;8.642;2022-09-09T11:06:13;24.70;50.00
16404;DHT22;8311;50.158;8.642;2022-09-09T11:09:14;24.70;50.00
16404;DHT22;8311;50.158;8.642;2022-09-09T11:12:15;24.70;50.00
16404;DHT22;8311;50.158;8.642;2022-09-09T11:15:16;24.70;50.00
16404;DHT22;8311;50.158;8.642;2022-09-09T11:18:13;24.70;50.10
16404;DHT22;8311;50.158;8.642;2022-09-09T11:21:14;24.70;50.90
16404;DHT22;8311;50.158;8.642;2022-09-09T11:24:15;24.70;50.90
16404;DHT22;8311;50.158;8.642;2022-09-09T11:27:15;24.70;50.00
16404;DHT22;8311;50.158;8.642;2022-09-09T11:30:31;24.80;50.10
16404;DHT22;8311;50.158;8.642;2022-09-09T11:34:14;24.70;50.50
16404;DHT22;8311;50.158;8.642;2022-09-09T11:37:23;24.70;50.90
16404;DHT22;8311;50.158;8.642;2022-09-09T11:40:24;24.70;51.90
16404;DHT22;8311;50.158;8.642;2022-09-09T11:43:23;24.80;50.60
16404;DHT22;8311;50.158;8.642;2022-09-09T11:46:18;24.80;49.60
16404;DHT22;8311;50.158;8.642;2022-09-09T11:49:27;24.80;49.80
16404;DHT22;8311;50.158;8.642;2022-09-09T11:52:23;24.80;50.30
16404;DHT22;8311;50.158;8.642;2022-09-09T11:55:27;24.80;50.50
16404;DHT22;8311;50.158;8.642;2022-09-09T11:58:22;24.80;50.10
16404;DHT22;8311;50.158;8.642;2022-09-09T12:01:29;24.80;49.60
16404;DHT22;8311;50.158;8.642;2022-09-09T12:04:35;24.80;49.70
16404;DHT22;8311;50.158;8.642;2022-09-09T12:07:34;24.70;49.60
16404;DHT22;8311;50.158;8.642;2022-09-09T12:10:32;24.80;49.70
16404;DHT22;8311;50.158;8.642;2022-09-09T12:13:27;24.70;49.60
16404;DHT22;8311;50.158;8.642;2022-09-09T12:16:28;24.70;49.50
16404;DHT22;8311;50.158;8.642;2022-09-09T12:19:22;24.70;49.50
16404;DHT22;8311;50.158;8.642;2022-09-09T12:22:26;24.70;49.50
16404;DHT22;8311;50.158;8.642;2022-09-09T12:25:34;24.70;49.40
16404;DHT22;8311;50.158;8.642;2022-09-09T12:28:41;24.70;49.40
16404;DHT22;8311;50.158;8.642;2022-09-09T12:31:42;24.70;49.40
16404;DHT22;8311;50.158;8.642;2022-09-09T12:34:39;24.70;49.40
16404;DHT22;8311;50.158;8.642;2022-09-09T12:37:35;24.70;49.50
16404;DHT22;8311;50.158;8.642;2022-09-09T12:40:30;24.70;49.50
16404;DHT22;8311;50.158;8.642;2022-09-09T12:43:26;24.70;49.50
16404;DHT22;8311;50.158;8.642;2022-09-09T12:46:32;24.70;49.60
16404;DHT22;8311;50.158;8.642;2022-09-09T12:49:31;24.70;49.60
16404;DHT22;8311;50.158;8.642;2022-09-09T12:52:29;24.70;49.60
16404;DHT22;8311;50.158;8.642;2022-09-09T12:55:27;24.70;49.70
16404;DHT22;8311;50.158;8.642;2022-09-09T12:58:22;24.70;49.50
16404;DHT22;8311;50.158;8.642;2022-09-09T13:01:22;24.70;49.50
16404;DHT22;8311;50.158;8.642;2022-09-09T13:04:20;24.70;49.60
16404;DHT22;8311;50.158;8.642;2022-09-09T13:07:14;24.70;49.60
16404;DHT22;8311;50.158;8.642;2022-09-09T13:10:11;24.70;49.60
16404;DHT22;8311;50.158;8.642;2022-09-09T13:13:19;24.70;49.60
16404;DHT22;8311;50.158;8.642;2022-09-09T13:16:25;24.70;49.70
16404;DHT22;8311;50.158;8.642;2022-09-09T13:19:24;24.70;49.70
16404;DHT22;8311;50.158;8.642;2022-09-09T13:22:21;24.70;49.80
16404;DHT22;8311;50.158;8.642;2022-09-09T13:25:21;24.70;49.80
16404;DHT22;8311;50.158;8.642;2022-09-09T13:28:21;24.70;49.70
16404;DHT22;8311;50.158;8.642;2022-09-09T13:31:22;24.70;49.80
16404;DHT22;8311;50.158;8.642;2022-09-09T13:34:26;24.70;49.80
16404;DHT22;8311;50.158;8.642;2022-09-09T13:37:23;24.70;50.50
16404;DHT22;8311;50.158;8.642;2022-09-09T13:40:21;24.70;49.80
16404;DHT22;8311;50.158;8.642;2022-09-09T13:43:21;24.70;49.70
16404;DHT22;8311;50.158;8.642;2022-09-09T13:46:26;24.70;49.80
16404;DHT22;8311;50.158;8.642;2022-09-09T13:49:23;24.70;49.80
16404;DHT22;8311;50.158;8.642;2022-09-09T13:52:18;24.70;49.80
16404;DHT22;8311;50.158;8.642;2022-09-09T13:55:12;24.70;49.80
16404;DHT22;8311;50.158;8.642;2022-09-09T13:58:05;24.60;50.40
16404;DHT22;8311;50.158;8.642;2022-09-09T14:00:59;24.70;49.70
16404;DHT22;8311;50.158;8.642;2022-09-09T14:03:53;24.70;49.70
16404;DHT22;8311;50.158;8.642;2022-09-09T14:06:45;24.70;49.60
16404;DHT22;8311;50.158;8.642;2022-09-09T14:09:39;24.70;49.70
16404;DHT22;8311;50.158;8.642;2022-09-09T14:12:33;24.70;49.60
16404;DHT22;8311;50.158;8.642;2022-09-09T14:15:27;24.70;49.60
16404;DHT22;8311;50.158;8.642;2022-09-09T14:18:21;24.70;49.60
16404;DHT22;8311;50.158;8.642;2022-09-09T14:21:15;24.70;49.70
16404;DHT22;8311;50.158;8.642;2022-09-09T14:24:08;24.70;49.60
16404;DHT22;8311;50.158;8.642;2022-09-09T14:27:02;24.70;49.60
16404;DHT22;8311;50.158;8.642;2022-09-09T14:29:54;24.70;49.60
16404;DHT22;8311;50.158;8.642;2022-09-09T14:32:47;24.60;49.50
16404;DHT22;8311;50.158;8.642;2022-09-09T14:35:41;24.60;49.60
16404;DHT22;8311;50.158;8.642;2022-09-09T14:38:37;24.60;49.50
16404;DHT22;8311;50.158;8.642;2022-09-09T14:41:31;24.60;49.60
16404;DHT22;8311;50.158;8.642;2022-09-09T14:44:24;24.60;49.60
16404;DHT22;8311;50.158;8.642;2022-09-09T14:47:18;24.70;49.60
16404;DHT22;8311;50.158;8.642;2022-09-09T14:50:11;24.60;49.60
16404;DHT22;8311;50.158;8.642;2022-09-09T14:53:05;24.60;49.50
16404;DHT22;8311;50.158;8.642;2022-09-09T14:56:05;24.60;49.70
16404;DHT22;8311;50.158;8.642;2022-09-09T14:58:59;24.60;49.60
16404;DHT22;8311;50.158;8.642;2022-09-09T15:01:53;24.60;49.60
16404;DHT22;8311;50.158;8.642;2022-09-09T15:04:46;24.60;49.60
16404;DHT22;8311;50.158;8.642;2022-09-09T15:07:42;24.60;49.60
16404;DHT22;8311;50.158;8.642;2022-09-09T15:10:35;24.60;49.70
16404;DHT22;8311;50.158;8.642;2022-09-09T15:13:30;24.60;49.60
16404;DHT22;8311;50.158;8.642;2022-09-09T15:16:25;24.60;49.60
16404;DHT22;8311;50.158;8.642;2022-09-09T15:19:19;24.60;49.60
16404;DHT22;8311;50.158;8.642;2022-09-09T15:22:12;24.60;49.70
16404;DHT22;8311;50.158;8.642;2022-09-09T15:25:05;24.60;49.60
16404;DHT22;8311;50.158;8.642;2022-09-09T15:27:59;24.60;49.70
16404;DHT22;8311;50.158;8.642;2022-09-09T15:30:54;24.60;49.70
16404;DHT22;8311;50.158;8.642;2022-09-09T15:33:49;24.60;49.70
16404;DHT22;8311;50.158;8.642;2022-09-09T15:36:44;24.60;49.60
16404;DHT22;8311;50.158;8.642;2022-09-09T15:39:37;24.60;49.70
16404;DHT22;8311;50.158;8.642;2022-09-09T15:42:31;24.60;49.70
16404;DHT22;8311;50.158;8.642;2022-09-09T15:45:24;24.60;49.60
16404;DHT22;8311;50.158;8.642;2022-09-09T15:48:19;24.60;49.60
16404;DHT22;8311;50.158;8.642;2022-09-09T15:51:16;24.60;49.60
16404;DHT22;8311;50.158;8.642;2022-09-09T15:54:32;24.60;49.60
16404;DHT22;8311;50.158;8.642;2022-09-09T15:57:26;24.60;49.70
16404;DHT22;8311;50.158;8.642;2022-09-09T16:00:20;24.60;49.60
16404;DHT22;8311;50.158;8.642;2022-09-09T16:03:13;24.60;49.60
16404;DHT22;8311;50.158;8.642;2022-09-09T16:06:08;24.50;49.60
16404;DHT22;8311;50.158;8.642;2022-09-09T16:09:04;24.60;49.70
16404;DHT22;8311;50.158;8.642;2022-09-09T16:11:58;24.60;49.70
16404;DHT22;8311;50.158;8.642;2022-09-09T16:14:52;24.50;49.60
16404;DHT22;8311;50.158;8.642;2022-09-09T16:17:47;24.60;49.60
16404;DHT22;8311;50.158;8.642;2022-09-09T16:20:40;24.60;49.60
16404;DHT22;8311;50.158;8.642;2022-09-09T16:23:34;24.50;49.50
16404;DHT22;8311;50.158;8.642;2022-09-09T16:26:28;24.60;49.60
16404;DHT22;8311;50.158;8.642;2022-09-09T16:29:23;24.60;49.60
16404;DHT22;8311;50.158;8.642;2022-09-09T16:32:19;24.50;49.60
16404;DHT22;8311;50.158;8.642;2022-09-09T16:35:12;24.60;49.60
16404;DHT22;8311;50.158;8.642;2022-09-09T16:38:05;24.60;49.70
16404;DHT22;8311;50.158;8.642;2022-09-09T16:41:00;24.60;49.70
16404;DHT22;8311;50.158;8.642;2022-09-09T16:43:55;24.60;49.70
16404;DHT22;8311;50.158;8.642;2022-09-09T16:46:50;24.50;49.60
16404;DHT22;8311;50.158;8.642;2022-09-09T16:49:50;24.50;49.60
16404;DHT22;8311;50.158;8.642;2022-09-09T16:52:44;24.50;49.60
16404;DHT22;8311;50.158;8.642;2022-09-09T16:55:40;24.50;49.50
16404;DHT22;8311;50.158;8.642;2022-09-09T16:58:35;24.60;49.60
16404;DHT22;8311;50.158;8.642;2022-09-09T17:01:30;24.50;49.50
16404;DHT22;8311;50.158;8.642;2022-09-09T17:04:27;24.50;49.50
16404;DHT22;8311;50.158;8.642;2022-09-09T17:07:19;24.50;49.60
16404;DHT22;8311;50.158;8.642;2022-09-09T17:10:14;24.50;49.40
16404;DHT22;8311;50.158;8.642;2022-09-09T17:13:07;24.50;49.50
16404;DHT22;8311;50.158;8.642;2022-09-09T17:16:03;24.50;49.50
16404;DHT22;8311;50.158;8.642;2022-09-09T17:18:57;24.50;49.50
16404;DHT22;8311;50.158;8.642;2022-09-09T17:21:51;24.50;49.40
16404;DHT22;8311;50.158;8.642;2022-09-09T17:25:06;24.50;49.40
16404;DHT22;8311;50.158;8.642;2022-09-09T17:28:00;24.60;49.40
16404;DHT22;8311;50.158;8.642;2022-09-09T17:30:53;24.50;49.30
16404;DHT22;8311;50.158;8.642;2022-09-09T17:33:48;24.50;49.30
16404;DHT22;8311;50.158;8.642;2022-09-09T17:36:42;24.50;49.30
16404;DHT22;8311;50.158;8.642;2022-09-09T17:39:35;24.50;49.30
16404;DHT22;8311;50.158;8.642;2022-09-09T17:42:28;24.50;49.30
16404;DHT22;8311;50.158;8.642;2022-09-09T17:45:21;24.50;49.20
16404;DHT22;8311;50.158;8.642;2022-09-09T17:48:15;24.50;49.20
16404;DHT22;8311;50.158;8.642;2022-09-09T17:51:11;24.50;49.20
16404;DHT22;8311;50.158;8.642;2022-09-09T17:54:07;24.50;49.20
16404;DHT22;8311;50.158;8.642;2022-09-09T17:57:01;24.50;49.20
16404;DHT22;8311;50.158;8.642;2022-09-09T17:59:55;24.50;49.20
16404;DHT22;8311;50.158;8.642;2022-09-09T18:02:48;24.50;49.20
16404;DHT22;8311;50.158;8.642;2022-09-09T18:05:40;24.50;49.20
16404;DHT22;8311;50.158;8.642;2022-09-09T18:08:35;24.50;49.20
16404;DHT22;8311;50.158;8.642;2022-09-09T18:11:31;24.50;49.20
16404;DHT22;8311;50.158;8.642;2022-09-09T18:14:26;24.50;49.20
16404;DHT22;8311;50.158;8.642;2022-09-09T18:17:19;24.50;49.20
16404;DHT22;8311;50.158;8.642;2022-09-09T18:20:12;24.50;49.20
16404;DHT22;8311;50.158;8.642;2022-09-09T18:23:05;24.50;49.10
16404;DHT22;8311;50.158;8.642;2022-09-09T18:25:59;24.50;49.00
16404;DHT22;8311;50.158;8.642;2022-09-09T18:28:54;24.50;49.00
16404;DHT22;8311;50.158;8.642;2022-09-09T18:31:47;24.50;49.00
16404;DHT22;8311;50.158;8.642;2022-09-09T18:34:40;24.50;48.90
16404;DHT22;8311;50.158;8.642;2022-09-09T18:37:33;24.50;49.00
16404;DHT22;8311;50.158;8.642;2022-09-09T18:40:29;24.50;48.90
16404;DHT22;8311;50.158;8.642;2022-09-09T18:43:23;24.50;48.80
16404;DHT22;8311;50.158;8.642;2022-09-09T18:46:18;24.50;48.90
16404;DHT22;8311;50.158;8.642;2022-09-09T18:49:11;24.50;48.80
16404;DHT22;8311;50.158;8.642;2022-09-09T18:52:06;24.50;48.80
16404;DHT22;8311;50.158;8.642;2022-09-09T18:55:05;24.50;48.80
16404;DHT22;8311;50.158;8.642;2022-09-09T18:57:59;24.50;48.70
16404;DHT22;8311;50.158;8.642;2022-09-09T19:00:55;24.50;48.80
16404;DHT22;8311;50.158;8.642;2022-09-09T19:03:48;24.50;48.80